PIT weather

Pittsburgh International Airport
Pittsburgh, Pennsylvania, United States

Public forecast

Using degrees Fahrenheit for public forecast. Weather courtesy of forecast.io.

METAR (pilot weather report)

Retrieved 2019/04/25 08:51 UTC (33 minutes ago):

KPIT 250851Z 00000KT 9SM -RA BKN040 OVC070 12/06 A2990 RMK AO2 RAB20 SLP129 P0000 60000 T01170056 53001

TAF (pilot weather forecast)

Retrieved 2019/04/25 06:33 UTC (3 hours ago):

TAF KPIT 250530Z 2506/2612 00000KT P6SM OVC090 FM251600 16004KT P6SM VCSH OVC030 FM251900 18005KT 6SM -SHRA OVC015 FM260000 17005KT 6SM -SHRA BR OVC008 FM260300 17005KT 4SM -SHRA BR OVC015